Time;durP1;ratioP1;P1;durP2;ratioP2;P2;SDS_P1;SDS_P2;PMS_P1;PMS_P2;Temp;Humidity;BMP_temperature;BMP_pressure;BME280_temperature;BME280_humidity;BME280_pressure;Samples;Min_cycle;Max_cycle;Signal;HPM_P1;HPM_P2
2022/12/24 00:02:04;;;;;;;31.90;29.20;;;;;;;4.40;99.90;96841.30;105410;1292;22412;-90
2022/12/24 00:04:32;;;;;;;29.40;26.70;;;;;;;4.43;100.00;96837.38;105949;1318;21911;-93
2022/12/24 00:07:01;;;;;;;27.00;24.70;;;;;;;4.48;99.97;96832.88;105373;1288;22167;-90
2022/12/24 00:09:29;;;;;;;25.00;22.70;;;;;;;4.52;99.92;96828.89;105683;1296;22188;-91
2022/12/24 00:11:57;;;;;;;23.40;21.20;;;;;;;4.61;99.90;96823.44;105476;1294;22350;-92
2022/12/24 00:14:45;;;;;;;23.20;21.20;;;;;;;4.66;99.89;96823.80;106379;1282;22366;31
2022/12/24 00:17:13;;;;;;;28.10;25.70;;;;;;;4.70;99.83;96824.34;105278;1278;22107;-90
2022/12/24 00:19:42;;;;;;;26.80;24.50;;;;;;;4.70;99.99;96824.77;105482;1324;22185;-89
2022/12/24 00:22:10;;;;;;;31.10;28.60;;;;;;;4.71;99.98;96822.98;105741;1318;22073;-91
2022/12/24 00:24:45;;;;;;;29.30;26.70;;;;;;;4.71;100.00;96825.88;106245;1287;22662;31
2022/12/24 00:27:21;;;;;;;24.30;22.10;;;;;;;4.75;100.00;96822.41;105222;1291;22335;-90
2022/12/24 00:29:50;;;;;;;21.70;19.60;;;;;;;4.79;100.00;96815.10;105544;1321;22352;-85
2022/12/24 00:32:17;;;;;;;21.20;19.30;;;;;;;4.82;100.00;96815.39;106220;1293;22040;-90
2022/12/24 00:34:47;;;;;;;21.20;19.00;;;;;;;4.85;99.89;96806.10;105429;1278;22113;-89
2022/12/24 00:37:34;;;;;;;21.90;19.90;;;;;;;4.87;100.00;96798.50;106030;1297;22391;31
2022/12/24 00:40:10;;;;;;;20.90;19.00;;;;;;;4.85;100.00;96788.01;107436;1281;22333;31
2022/12/24 00:42:38;;;;;;;19.50;17.80;;;;;;;4.84;100.00;96787.21;106414;1315;22056;-88
2022/12/24 00:45:06;;;;;;;18.90;17.20;;;;;;;4.83;99.98;96786.02;106554;1314;22203;-91
2022/12/24 00:47:35;;;;;;;18.70;16.90;;;;;;;4.83;100.00;96783.81;105681;1289;22135;-88
2022/12/24 00:50:06;;;;;;;19.00;17.20;;;;;;;4.85;99.98;96778.55;105714;1295;22044;-88
2022/12/24 00:52:34;;;;;;;22.70;20.50;;;;;;;4.85;100.00;96774.11;105600;1289;23269;-89
2022/12/24 00:55:02;;;;;;;23.30;21.10;;;;;;;4.85;100.00;96774.09;105485;1324;21897;-89
2022/12/24 00:57:34;;;;;;;27.30;24.70;;;;;;;4.83;99.99;96761.40;105695;1323;21891;-88
2022/12/24 01:00:03;;;;;;;23.70;21.50;;;;;;;4.82;100.00;96754.60;105630;1321;22268;-87
2022/12/24 01:02:31;;;;;;;22.00;19.80;;;;;;;4.79;99.93;96756.87;105314;1319;22094;-87
2022/12/24 01:05:11;;;;;;;20.60;18.70;;;;;;;4.71;99.89;96755.73;105422;1324;22295;-90
2022/12/24 01:07:43;;;;;;;22.30;20.30;;;;;;;4.72;99.99;96748.75;105198;1326;22317;-90
2022/12/24 01:10:14;;;;;;;21.40;19.50;;;;;;;4.74;100.00;96746.80;105155;1327;22098;-91
2022/12/24 01:12:43;;;;;;;20.70;18.70;;;;;;;4.73;99.96;96738.06;105527;1321;23117;-91
2022/12/24 01:15:21;;;;;;;24.80;22.30;;;;;;;4.72;100.00;96736.25;106326;1287;23379;31
2022/12/24 01:17:49;;;;;;;21.80;19.60;;;;;;;4.65;99.89;96737.59;105468;1318;22249;-88
2022/12/24 01:20:17;;;;;;;21.40;19.20;;;;;;;4.63;100.00;96735.16;105533;1323;22314;-90
2022/12/24 01:22:47;;;;;;;20.00;17.80;;;;;;;4.65;100.00;96740.84;105346;1324;22140;-89
2022/12/24 01:25:15;;;;;;;18.00;16.20;;;;;;;4.66;100.00;96744.04;105856;1290;21881;-90
2022/12/24 01:27:43;;;;;;;18.00;16.30;;;;;;;4.67;100.00;96749.55;105549;1285;22386;-91
2022/12/24 01:30:13;;;;;;;18.00;16.20;;;;;;;4.69;100.00;96749.67;105928;1295;22132;-88
2022/12/24 01:32:42;;;;;;;16.30;14.80;;;;;;;4.74;100.00;96752.88;105304;1285;22121;-92
2022/12/24 01:35:21;;;;;;;17.00;15.40;;;;;;;4.81;100.00;96751.23;106177;1295;22967;31
2022/12/24 01:37:57;;;;;;;18.30;16.50;;;;;;;4.85;100.00;96749.89;106646;1296;22386;31
2022/12/24 01:43:25;;;;;;;18.70;17.00;;;;;;;4.84;100.00;96755.35;105402;1296;22254;-89
2022/12/24 01:46:03;;;;;;;18.50;16.90;;;;;;;4.83;100.00;96756.86;105076;1324;22239;-89
2022/12/24 01:48:43;;;;;;;19.40;17.70;;;;;;;4.81;100.00;96752.45;105618;1316;22087;-88
2022/12/24 01:51:11;;;;;;;20.20;18.40;;;;;;;4.82;100.00;96755.31;105156;1324;22187;-91
2022/12/24 01:53:44;;;;;;;19.30;17.60;;;;;;;4.84;100.00;96758.94;105266;1324;22091;-90
2022/12/24 01:56:13;;;;;;;19.70;17.80;;;;;;;4.86;100.00;96764.50;104993;1324;22128;-89
2022/12/24 01:58:47;;;;;;;20.70;18.70;;;;;;;4.88;100.00;96767.95;104978;1324;22175;-89
2022/12/24 02:01:15;;;;;;;25.20;23.00;;;;;;;4.89;100.00;96763.66;104937;1324;21798;-88
2022/12/24 02:03:43;;;;;;;24.50;22.40;;;;;;;4.87;100.00;96755.24;104860;1324;22191;-89
2022/12/24 02:10:00;;;;;;;24.50;22.30;;;;;;;4.77;100.00;96742.80;105270;1324;22175;-91
2022/12/24 02:12:47;;;;;;;22.30;20.40;;;;;;;4.77;100.00;96738.73;105851;1295;22370;31
2022/12/24 02:15:21;;;;;;;20.50;18.60;;;;;;;4.78;100.00;96738.77;107175;1279;22269;31
2022/12/24 02:18:26;;;;;;;20.50;18.70;;;;;;;4.79;100.00;96737.66;107560;1283;23883;31
2022/12/24 02:21:21;;;;;;;24.90;22.80;;;;;;;4.82;100.00;96736.16;107410;1278;22224;31
2022/12/24 02:24:22;;;;;;;22.40;20.50;;;;;;;4.79;100.00;96732.37;107752;1281;22813;31
2022/12/24 02:27:48;;;;;;;25.20;23.10;;;;;;;4.74;100.00;96737.45;107595;1283;22243;31
2022/12/24 02:30:40;;;;;;;23.10;21.10;;;;;;;4.71;100.00;96732.98;107567;1285;22276;31
2022/12/24 02:33:21;;;;;;;21.90;19.90;;;;;;;4.73;100.00;96738.22;106914;1295;22314;31
2022/12/24 02:36:11;;;;;;;20.90;19.10;;;;;;;4.76;100.00;96740.41;107684;1276;22301;31
2022/12/24 02:39:00;;;;;;;20.70;18.70;;;;;;;4.81;100.00;96742.14;107420;1285;23808;31
2022/12/24 02:45:16;;;;;;;18.50;16.90;;;;;;;4.82;100.00;96737.33;107697;1269;24152;31
2022/12/24 02:48:39;;;;;;;19.60;17.80;;;;;;;4.79;100.00;96746.45;107423;1288;22626;31
2022/12/24 02:54:40;;;;;;;18.80;17.10;;;;;;;4.80;100.00;96731.19;87095;1318;23113;31
2022/12/24 02:57:47;;;;;;;19.70;17.90;;;;;;;4.78;100.00;96725.02;107527;1288;22342;31
2022/12/24 03:00:21;;;;;;;19.40;17.70;;;;;;;4.72;100.00;96734.55;106273;1285;22090;-87
2022/12/24 03:02:55;;;;;;;21.00;19.20;;;;;;;4.69;100.00;96735.23;105184;1321;22101;-90
2022/12/24 03:05:40;;;;;;;19.90;18.10;;;;;;;4.71;100.00;96728.42;105633;1321;22720;-92
2022/12/24 03:08:46;;;;;;;22.00;20.10;;;;;;;4.73;100.00;96733.20;105407;1322;22114;-92
2022/12/24 03:11:15;;;;;;;25.70;23.60;;;;;;;4.75;100.00;96738.56;104720;1330;22972;-92
2022/12/24 03:13:43;;;;;;;26.00;23.80;;;;;;;4.73;100.00;96738.28;104619;1330;22131;-92
2022/12/24 03:16:20;;;;;;;25.90;23.80;;;;;;;4.73;100.00;96743.93;104558;1330;22160;-92
2022/12/24 03:18:50;;;;;;;24.20;22.20;;;;;;;4.72;100.00;96742.66;104668;1330;22234;-93
2022/12/24 03:21:30;;;;;;;25.60;23.50;;;;;;;4.73;100.00;96748.36;104731;1330;22174;-91
2022/12/24 03:23:58;;;;;;;25.80;23.70;;;;;;;4.77;100.00;96752.68;104615;1317;22927;-92
2022/12/24 03:26:28;;;;;;;26.40;24.10;;;;;;;4.81;100.00;96757.75;104896;1330;22249;-91
2022/12/24 03:28:56;;;;;;;24.70;22.60;;;;;;;4.82;100.00;96761.95;104752;1330;22120;-92
2022/12/24 03:31:24;;;;;;;24.60;22.50;;;;;;;4.79;100.00;96777.95;104900;1310;22156;-93
2022/12/24 03:33:53;;;;;;;26.30;23.80;;;;;;;4.77;100.00;96776.48;104948;1330;22189;-90
2022/12/24 03:36:22;;;;;;;23.20;21.20;;;;;;;4.74;100.00;96777.06;104823;1330;23132;-92
2022/12/24 03:42:56;;;;;;;17.30;15.70;;;;;;;4.73;100.00;96784.91;105357;1321;22741;-93
2022/12/24 03:45:24;;;;;;;17.30;15.70;;;;;;;4.79;100.00;96785.48;105358;1321;22189;-91
2022/12/24 03:47:52;;;;;;;15.60;14.10;;;;;;;4.86;100.00;96785.54;105022;1321;22195;-92
2022/12/24 03:50:20;;;;;;;14.40;13.10;;;;;;;4.94;100.00;96786.77;105164;1321;22768;-92
2022/12/24 03:52:48;;;;;;;13.60;12.40;;;;;;;5.02;100.00;96786.26;105480;1321;22146;-93
2022/12/24 03:55:16;;;;;;;14.10;12.80;;;;;;;5.06;100.00;96786.58;105169;1321;22084;-94
2022/12/24 03:57:44;;;;;;;14.70;13.40;;;;;;;5.10;100.00;96788.88;105296;1322;22277;-95
2022/12/24 04:00:13;;;;;;;14.10;12.90;;;;;;;5.14;100.00;96792.86;105351;1324;22208;-93
2022/12/24 04:02:41;;;;;;;14.90;13.50;;;;;;;5.18;100.00;96789.91;105232;1324;22129;-87
2022/12/24 04:05:16;;;;;;;12.90;11.80;;;;;;;5.20;100.00;96788.50;105195;1326;22171;-92
2022/12/24 04:07:45;;;;;;;13.90;12.70;;;;;;;5.23;100.00;96789.90;105218;1327;22165;-90
2022/12/24 04:10:14;;;;;;;14.30;12.90;;;;;;;5.27;100.00;96794.66;105603;1324;22151;-89
2022/12/24 04:12:48;;;;;;;14.70;13.40;;;;;;;5.28;100.00;96791.86;105342;1324;22854;-89
2022/12/24 04:15:16;;;;;;;14.10;12.90;;;;;;;5.27;100.00;96789.80;105399;1311;22134;-91
2022/12/24 04:17:44;;;;;;;15.40;14.00;;;;;;;5.26;100.00;96791.05;105309;1324;22162;-90
2022/12/24 04:20:12;;;;;;;16.40;15.00;;;;;;;5.25;100.00;96792.54;105506;1321;21919;-92
2022/12/24 04:22:41;;;;;;;15.00;13.70;;;;;;;5.28;100.00;96779.98;105394;1318;21863;-91
2022/12/24 04:29:29;;;;;;;17.00;15.50;;;;;;;5.27;100.00;96786.31;105586;1327;22136;-91
2022/12/24 04:31:57;;;;;;;16.20;14.80;;;;;;;5.26;100.00;96781.48;105321;1324;22337;-93
2022/12/24 04:34:26;;;;;;;16.40;15.00;;;;;;;5.22;100.00;96785.33;105135;1327;22067;-92
2022/12/24 04:36:54;;;;;;;17.40;15.80;;;;;;;5.22;100.00;96789.50;105219;1324;22188;-93
2022/12/24 04:39:22;;;;;;;17.00;15.60;;;;;;;5.19;100.00;96792.53;105033;1326;22173;-93
2022/12/24 04:41:50;;;;;;;17.50;16.00;;;;;;;5.19;100.00;96789.58;105210;1321;22091;-92
2022/12/24 04:44:18;;;;;;;16.90;15.30;;;;;;;5.18;100.00;96787.09;105516;1311;22815;-93
2022/12/24 04:46:46;;;;;;;18.40;16.80;;;;;;;5.19;100.00;96785.53;105281;1323;22174;-93
2022/12/24 04:49:14;;;;;;;18.90;17.30;;;;;;;5.19;100.00;96790.64;105212;1324;22681;-92
2022/12/24 04:51:42;;;;;;;20.20;18.30;;;;;;;5.17;100.00;96789.99;105081;1326;22103;-93
2022/12/24 04:54:10;;;;;;;18.90;17.30;;;;;;;5.16;100.00;96794.98;105125;1318;22189;-92
2022/12/24 04:56:46;;;;;;;16.40;15.00;;;;;;;5.18;100.00;96799.01;106048;1295;23217;31
2022/12/24 04:59:21;;;;;;;16.90;15.60;;;;;;;5.17;100.00;96797.70;106982;1292;22415;31
2022/12/24 05:01:49;;;;;;;17.10;15.60;;;;;;;5.15;100.00;96792.38;105633;1319;22082;-92
2022/12/24 05:04:17;;;;;;;16.80;15.40;;;;;;;5.17;100.00;96795.55;105245;1321;23081;-93
2022/12/24 05:06:45;;;;;;;18.90;17.20;;;;;;;5.16;100.00;96794.55;105518;1321;22178;-94
2022/12/24 05:09:13;;;;;;;18.90;17.20;;;;;;;5.16;100.00;96796.04;105727;1316;22253;-90
2022/12/24 05:11:41;;;;;;;17.30;15.70;;;;;;;5.17;100.00;96797.96;105500;1322;22188;-91
2022/12/24 05:14:09;;;;;;;18.80;17.20;;;;;;;5.15;100.00;96799.04;105089;1321;22091;-93
2022/12/24 05:16:37;;;;;;;17.60;16.10;;;;;;;5.17;100.00;96800.56;105150;1319;22124;-93
2022/12/24 05:19:05;;;;;;;17.00;15.60;;;;;;;5.16;100.00;96802.98;105202;1321;22102;-94
2022/12/24 05:21:33;;;;;;;18.90;17.30;;;;;;;5.16;100.00;96799.67;105501;1321;22111;-91
2022/12/24 05:26:52;;;;;;;19.50;17.90;;;;;;;5.19;100.00;96802.40;105422;1324;22189;-93
2022/12/24 05:29:21;;;;;;;18.80;17.20;;;;;;;5.19;100.00;96806.84;105253;1321;22091;-92
2022/12/24 05:31:49;;;;;;;18.60;17.00;;;;;;;5.18;100.00;96806.96;105470;1324;22279;-91
2022/12/24 05:34:17;;;;;;;19.10;17.60;;;;;;;5.19;100.00;96806.11;105074;1321;22256;-93
2022/12/24 05:36:45;;;;;;;17.80;16.20;;;;;;;5.19;100.00;96806.36;105221;1321;22290;-91
2022/12/24 05:39:15;;;;;;;20.40;18.60;;;;;;;5.21;100.00;96809.86;105217;1321;22121;-91
2022/12/24 05:41:46;;;;;;;20.50;18.80;;;;;;;5.22;100.00;96809.46;105852;1317;22655;-92
2022/12/24 05:44:15;;;;;;;19.10;17.60;;;;;;;5.24;100.00;96812.45;105651;1289;22103;-92
2022/12/24 05:46:44;;;;;;;20.40;18.80;;;;;;;5.27;100.00;96819.39;105427;1324;22830;-92
2022/12/24 05:49:14;;;;;;;18.80;17.30;;;;;;;5.26;100.00;96818.98;105247;1324;22157;-93
2022/12/24 05:51:42;;;;;;;20.50;18.90;;;;;;;5.29;100.00;96821.12;105130;1324;22169;-93
2022/12/24 05:54:10;;;;;;;19.60;18.00;;;;;;;5.30;100.00;96823.80;105168;1324;22277;-91
2022/12/24 05:56:38;;;;;;;20.00;18.40;;;;;;;5.31;100.00;96822.84;105171;1324;22792;-90
2022/12/24 05:59:06;;;;;;;19.10;17.50;;;;;;;5.28;100.00;96820.91;105398;1318;22085;-92
2022/12/24 06:01:34;;;;;;;21.00;19.20;;;;;;;5.27;100.00;96826.01;105292;1324;22112;-90
2022/12/24 06:04:03;;;;;;;19.10;17.50;;;;;;;5.30;100.00;96832.91;105563;1297;22252;-91
2022/12/24 06:06:31;;;;;;;21.40;19.60;;;;;;;5.28;100.00;96825.83;105430;1322;22109;-93
2022/12/24 06:08:59;;;;;;;20.80;19.20;;;;;;;5.29;100.00;96825.29;105216;1317;21955;-95
2022/12/24 06:11:28;;;;;;;20.50;18.80;;;;;;;5.28;100.00;96823.84;105226;1324;22100;-92
2022/12/24 06:13:57;;;;;;;21.90;20.10;;;;;;;5.29;100.00;96826.71;105507;1318;22083;-92
2022/12/24 06:16:25;;;;;;;20.80;19.00;;;;;;;5.29;100.00;96826.34;105343;1318;22276;-93
2022/12/24 06:18:54;;;;;;;22.20;20.30;;;;;;;5.30;100.00;96833.22;105111;1318;22198;-93
2022/12/24 06:21:22;;;;;;;21.40;19.60;;;;;;;5.29;100.00;96837.36;105440;1321;22232;-93
2022/12/24 06:23:50;;;;;;;22.30;20.50;;;;;;;5.28;100.00;96837.16;105607;1321;22185;-92
2022/12/24 06:26:21;;;;;;;22.20;20.50;;;;;;;5.29;100.00;96845.25;105165;1321;22186;-94
2022/12/24 06:28:50;;;;;;;23.20;21.30;;;;;;;5.31;100.00;96845.98;105330;1312;22203;-91
2022/12/24 06:31:21;;;;;;;20.70;19.00;;;;;;;5.30;100.00;96857.38;105601;1321;22669;-91
2022/12/24 06:33:50;;;;;;;21.10;19.30;;;;;;;5.33;100.00;96862.34;105339;1321;22230;-91
2022/12/24 06:36:21;;;;;;;21.70;19.90;;;;;;;5.35;100.00;96871.02;105416;1321;22095;-93
2022/12/24 06:38:50;;;;;;;24.70;22.70;;;;;;;5.33;100.00;96871.91;105133;1324;22127;-92
2022/12/24 06:41:19;;;;;;;23.30;21.20;;;;;;;5.31;100.00;96876.33;106016;1314;22105;-92
2022/12/24 06:43:49;;;;;;;22.40;20.30;;;;;;;5.30;100.00;96879.16;105173;1324;22258;-92
2022/12/24 06:46:18;;;;;;;22.30;20.50;;;;;;;5.31;100.00;96879.84;105031;1321;22562;-91
2022/12/24 06:48:47;;;;;;;22.70;20.80;;;;;;;5.32;100.00;96878.91;105498;1322;22169;-93
2022/12/24 06:51:18;;;;;;;21.60;19.70;;;;;;;5.31;100.00;96884.69;105082;1319;22275;-92
2022/12/24 06:53:49;;;;;;;20.10;18.40;;;;;;;5.32;100.00;96883.20;105340;1324;22085;-92
2022/12/24 06:56:19;;;;;;;19.80;18.20;;;;;;;5.34;100.00;96889.67;105155;1322;22275;-93
2022/12/24 06:58:48;;;;;;;19.70;18.00;;;;;;;5.35;100.00;96895.65;105018;1324;22273;-93
2022/12/24 07:01:18;;;;;;;20.30;18.60;;;;;;;5.36;100.00;96899.92;105341;1323;22088;-93
2022/12/24 07:03:46;;;;;;;19.50;17.90;;;;;;;5.37;100.00;96899.25;105624;1317;22131;-91
2022/12/24 07:06:33;;;;;;;20.90;19.00;;;;;;;5.40;100.00;96896.98;105031;1321;22088;-91
2022/12/24 07:09:01;;;;;;;22.10;20.30;;;;;;;5.41;100.00;96901.08;105480;1316;22135;-90
2022/12/24 07:11:29;;;;;;;22.10;20.30;;;;;;;5.44;100.00;96900.60;105344;1321;22110;-90
2022/12/24 07:13:57;;;;;;;25.40;23.30;;;;;;;5.43;100.00;96903.98;105461;1321;22089;-92
2022/12/24 07:16:25;;;;;;;24.90;22.70;;;;;;;5.41;100.00;96904.39;105321;1321;22123;-91
2022/12/24 07:18:53;;;;;;;20.70;19.00;;;;;;;5.40;100.00;96906.58;105146;1321;22161;-90
2022/12/24 07:21:21;;;;;;;24.40;22.30;;;;;;;5.35;100.00;96899.77;105224;1321;22115;-91
2022/12/24 07:23:49;;;;;;;24.60;22.60;;;;;;;5.41;100.00;96909.09;105497;1321;22810;-89
2022/12/24 07:26:17;;;;;;;23.50;21.60;;;;;;;5.43;100.00;96911.20;105438;1321;22794;-91
2022/12/24 07:28:45;;;;;;;21.90;20.00;;;;;;;5.44;100.00;96913.48;105345;1324;22247;-92
2022/12/24 07:31:13;;;;;;;20.10;18.50;;;;;;;5.47;100.00;96912.36;105033;1324;22163;-89
2022/12/24 07:33:41;;;;;;;25.30;23.30;;;;;;;5.50;100.00;96915.73;105635;1317;22108;-91
2022/12/24 07:36:17;;;;;;;25.40;23.10;;;;;;;5.52;100.00;96916.04;104919;1324;172411;-91
2022/12/24 07:38:45;;;;;;;20.70;18.90;;;;;;;5.53;100.00;96914.68;105688;1317;22158;-91
2022/12/24 07:41:43;;;;;;;19.80;18.20;;;;;;;5.59;100.00;96921.54;104974;1323;22111;-92
2022/12/24 07:44:14;;;;;;;21.10;19.40;;;;;;;5.57;100.00;96924.40;105326;1324;22250;-91
2022/12/24 07:46:43;;;;;;;17.40;16.00;;;;;;;5.56;100.00;96926.93;105311;1321;22240;-92
2022/12/24 07:49:12;;;;;;;16.90;15.50;;;;;;;5.58;100.00;96933.21;105042;1324;22119;-91
2022/12/24 07:51:40;;;;;;;15.80;14.20;;;;;;;5.59;100.00;96935.21;105161;1321;22108;-92
2022/12/24 07:54:09;;;;;;;15.20;13.90;;;;;;;5.62;100.00;96935.98;105256;1324;22792;-92
2022/12/24 07:56:37;;;;;;;17.00;15.50;;;;;;;5.65;100.00;96942.05;105374;1321;22812;-92
2022/12/24 07:59:09;;;;;;;15.60;14.10;;;;;;;5.66;100.00;96944.33;105262;1324;22235;-92
2022/12/24 08:01:37;;;;;;;23.60;21.40;;;;;;;5.70;100.00;96952.22;105110;1319;22649;-89
2022/12/24 08:04:06;;;;;;;27.00;24.70;;;;;;;5.69;100.00;96955.54;105041;1324;22173;-92
2022/12/24 08:06:34;;;;;;;22.90;20.80;;;;;;;5.71;100.00;96954.28;105014;1312;22290;-91
2022/12/24 08:09:02;;;;;;;23.00;21.00;;;;;;;5.76;100.00;96956.30;105329;1321;22097;-93
2022/12/24 08:11:30;;;;;;;21.90;19.90;;;;;;;5.78;100.00;96958.95;105140;1324;22156;-91
2022/12/24 08:13:58;;;;;;;24.00;21.90;;;;;;;5.77;100.00;96959.97;105133;1324;22715;-92
2022/12/24 08:16:26;;;;;;;20.40;18.60;;;;;;;5.80;100.00;96962.92;105024;1321;22092;-90
2022/12/24 08:18:54;;;;;;;20.00;18.20;;;;;;;5.81;100.00;96960.45;105308;1324;22932;-92
2022/12/24 08:21:22;;;;;;;17.70;16.10;;;;;;;5.83;100.00;96966.14;105092;1320;22142;-93
2022/12/24 08:23:50;;;;;;;18.60;17.00;;;;;;;5.89;100.00;96971.83;105460;1321;22349;-91
2022/12/24 08:26:18;;;;;;;19.30;17.60;;;;;;;5.88;100.00;96973.87;105212;1320;22204;-92
2022/12/24 08:28:46;;;;;;;18.00;16.30;;;;;;;5.87;100.00;96971.89;105431;1321;22330;-93
2022/12/24 08:31:14;;;;;;;15.10;13.60;;;;;;;5.89;100.00;96977.81;105123;1321;22197;-89
2022/12/24 08:33:42;;;;;;;17.10;15.30;;;;;;;5.96;100.00;96982.35;105157;1321;22139;-91
2022/12/24 08:36:10;;;;;;;16.20;14.70;;;;;;;6.00;100.00;96981.70;105544;1321;22168;-91
2022/12/24 08:38:38;;;;;;;16.90;15.30;;;;;;;6.02;100.00;96983.64;105268;1321;22095;-89
2022/12/24 08:41:06;;;;;;;18.40;16.70;;;;;;;6.04;100.00;96984.05;105123;1321;22081;-89
2022/12/24 08:43:34;;;;;;;19.80;18.00;;;;;;;6.07;100.00;96988.80;105334;1323;22831;-89
2022/12/24 08:46:04;;;;;;;22.30;20.30;;;;;;;6.06;100.00;96994.17;105058;1324;22153;-91
2022/12/24 08:48:34;;;;;;;21.00;19.00;;;;;;;6.06;100.00;97000.52;105139;1324;22132;-91
2022/12/24 08:51:07;;;;;;;17.20;15.60;;;;;;;6.08;100.00;97006.27;105032;1324;22226;-92
2022/12/24 08:53:36;;;;;;;22.00;19.90;;;;;;;6.11;100.00;97007.09;105337;1324;22188;-92
2022/12/24 08:56:07;;;;;;;21.10;19.30;;;;;;;6.13;100.00;97009.04;105501;1322;22114;-92
2022/12/24 08:58:37;;;;;;;17.00;15.30;;;;;;;6.14;100.00;97008.58;105168;1320;22212;-92
2022/12/24 09:01:11;;;;;;;17.60;15.90;;;;;;;6.20;100.00;97005.02;105002;1324;22167;-92
2022/12/24 09:03:40;;;;;;;19.30;17.30;;;;;;;6.22;100.00;97008.95;105158;1324;22199;-92
2022/12/24 09:06:09;;;;;;;19.00;17.30;;;;;;;6.21;100.00;97009.08;105475;1323;22188;-92
2022/12/24 09:08:38;;;;;;;17.60;15.90;;;;;;;6.23;100.00;97011.49;105278;1314;22205;-93
2022/12/24 09:11:09;;;;;;;17.90;16.00;;;;;;;6.24;100.00;97014.22;105168;1321;22112;-92
2022/12/24 09:13:38;;;;;;;16.10;14.50;;;;;;;6.26;100.00;97012.26;105490;1323;22941;-92
2022/12/24 09:16:07;;;;;;;15.00;13.50;;;;;;;6.26;100.00;97016.95;105536;1324;22277;-93
2022/12/24 09:18:36;;;;;;;18.30;16.40;;;;;;;6.30;100.00;97019.05;105529;1324;22255;-91
2022/12/24 09:21:15;;;;;;;14.50;13.00;;;;;;;6.33;100.00;97022.74;105192;1323;22955;-92
2022/12/24 09:23:45;;;;;;;17.40;15.60;;;;;;;6.33;100.00;97024.66;105142;1324;22152;-91
2022/12/24 09:26:20;;;;;;;16.50;14.90;;;;;;;6.31;100.00;97027.95;105088;1323;22143;-92
2022/12/24 09:28:49;;;;;;;16.40;14.80;;;;;;;6.32;100.00;97027.41;105834;1302;22105;-93
2022/12/24 09:31:18;;;;;;;15.80;14.20;;;;;;;6.34;100.00;97024.12;105484;1318;22103;-94
2022/12/24 09:33:48;;;;;;;20.90;18.90;;;;;;;6.34;100.00;97030.54;105599;1316;22669;-93
2022/12/24 09:36:16;;;;;;;24.20;21.60;;;;;;;6.33;100.00;97028.23;105585;1324;22290;-89
2022/12/24 09:38:45;;;;;;;21.30;19.20;;;;;;;6.36;100.00;97032.42;105278;1324;22253;-88
2022/12/24 09:41:23;;;;;;;21.90;19.80;;;;;;;6.36;100.00;97031.56;105512;1324;22245;-90
2022/12/24 09:44:29;;;;;;;19.10;17.20;;;;;;;6.35;100.00;97035.55;105218;1321;22094;-91
2022/12/24 09:47:00;;;;;;;16.40;14.80;;;;;;;6.33;100.00;97036.11;105676;1322;22121;-90
2022/12/24 09:49:42;;;;;;;15.00;13.60;;;;;;;6.37;100.00;97034.61;105454;1324;22093;-89
2022/12/24 09:52:17;;;;;;;21.90;19.70;;;;;;;6.37;100.00;97045.24;105191;1318;22071;-92
2022/12/24 09:54:55;;;;;;;16.30;14.70;;;;;;;6.42;100.00;97042.46;105494;1321;22824;-93
2022/12/24 09:57:39;;;;;;;17.70;15.90;;;;;;;6.43;100.00;97045.66;105393;1321;22289;-93
2022/12/24 10:00:19;;;;;;;16.30;14.70;;;;;;;6.43;100.00;97058.81;105760;1315;22129;-94
2022/12/24 10:02:47;;;;;;;16.90;15.20;;;;;;;6.41;100.00;97060.60;105090;1321;22340;-93
2022/12/24 10:05:20;;;;;;;19.70;17.60;;;;;;;6.43;100.00;97063.40;105667;1314;22133;-94
2022/12/24 10:08:13;;;;;;;17.00;14.90;;;;;;;6.46;100.00;97057.96;105851;1302;22138;-93
2022/12/24 10:10:54;;;;;;;23.10;20.70;;;;;;;6.50;100.00;97066.67;105732;1316;22946;-93
2022/12/24 10:13:22;;;;;;;23.00;20.80;;;;;;;6.53;100.00;97070.10;105209;1321;22340;-93
2022/12/24 10:16:07;;;;;;;23.40;21.00;;;;;;;6.53;100.00;97070.64;105704;1321;22212;-91
2022/12/24 10:18:52;;;;;;;24.10;21.90;;;;;;;6.50;100.00;97072.71;106086;1303;22169;-91
2022/12/24 10:21:40;;;;;;;;;;;;;;;6.51;100.00;97079.83;105943;1316;22329;-93
2022/12/24 10:24:15;;;;;;;22.60;20.20;;;;;;;6.49;100.00;97078.04;105566;1321;22114;-93
2022/12/24 10:26:57;;;;;;;25.40;22.90;;;;;;;6.47;100.00;97083.79;105461;1321;21971;-92
2022/12/24 10:29:33;;;;;;;24.30;20.60;;;;;;;6.42;100.00;97088.36;105385;1321;22784;-92
2022/12/24 10:32:07;;;;;;;20.70;18.50;;;;;;;6.41;100.00;97091.00;105463;1321;22247;-92
2022/12/24 10:34:41;;;;;;;25.10;22.40;;;;;;;6.41;100.00;97097.05;105467;1321;22222;-90
2022/12/24 10:37:16;;;;;;;24.20;21.80;;;;;;;6.43;100.00;97102.33;105418;1321;23138;-91
2022/12/24 10:39:44;;;;;;;21.90;19.10;;;;;;;6.49;100.00;97102.67;105227;1317;22131;-92
2022/12/24 10:42:13;;;;;;;21.30;19.10;;;;;;;6.55;100.00;97100.75;105908;1292;22749;-90
2022/12/24 10:44:46;;;;;;;22.80;19.80;;;;;;;6.59;100.00;97099.51;105258;1321;22181;-92
2022/12/24 10:47:16;;;;;;;17.90;15.50;;;;;;;6.61;100.00;97098.35;105428;1323;22169;-92
2022/12/24 10:49:51;;;;;;;19.10;16.40;;;;;;;6.65;100.00;97104.17;105378;1323;22217;-90
2022/12/24 10:52:27;;;;;;;18.40;16.40;;;;;;;6.67;100.00;97100.02;105834;1316;22206;-88
2022/12/24 10:55:15;;;;;;;21.50;19.20;;;;;;;6.67;100.00;97107.67;105545;1321;22210;-90
2022/12/24 10:57:46;;;;;;;18.70;15.40;;;;;;;6.69;100.00;97114.17;105508;1321;22274;-87
2022/12/24 11:00:20;;;;;;;18.90;15.60;;;;;;;6.70;100.00;97110.09;105512;1321;22087;-90
2022/12/24 11:03:03;;;;;;;18.70;15.30;;;;;;;6.68;100.00;97121.80;105305;1323;22325;-91
2022/12/24 11:09:40;;;;;;;18.30;16.50;;;;;;;6.57;100.00;97122.23;105686;1321;22950;-91
2022/12/24 11:12:33;;;;;;;19.70;17.60;;;;;;;6.59;100.00;97123.75;105623;1308;22827;-91
2022/12/24 11:19:30;;;;;;;19.20;14.30;;;;;;;6.42;100.00;97132.45;105598;1321;22955;-92
2022/12/24 11:22:04;;;;;;;18.80;16.50;;;;;;;6.41;100.00;97138.20;105390;1324;22085;-90
2022/12/24 11:24:36;;;;;;;19.80;16.90;;;;;;;6.37;100.00;97138.65;105027;1323;22202;-92
2022/12/24 11:27:48;;;;;;;22.10;19.50;;;;;;;6.35;100.00;97141.98;105315;1324;22172;-92
2022/12/24 11:30:30;;;;;;;16.20;14.40;;;;;;;6.34;100.00;97141.41;105270;1324;22179;-92
2022/12/24 11:33:02;;;;;;;19.30;17.20;;;;;;;6.34;100.00;97145.02;105091;1324;22217;-94
2022/12/24 11:35:32;;;;;;;18.10;15.20;;;;;;;6.31;100.00;97151.35;105761;1292;22895;-93
2022/12/24 11:38:03;;;;;;;19.00;15.60;;;;;;;6.32;100.00;97155.26;105106;1323;22689;-89
2022/12/24 11:41:00;;;;;;;19.50;17.40;;;;;;;6.30;100.00;97161.11;106070;1294;22234;31
2022/12/24 11:43:50;;;;;;;17.00;14.30;;;;;;;6.31;100.00;97170.73;107039;1294;22340;-94
2022/12/24 11:46:34;;;;;;;16.90;14.80;;;;;;;6.34;100.00;97166.61;105305;1298;22933;-93
2022/12/24 11:49:20;;;;;;;17.30;15.50;;;;;;;6.31;100.00;97171.42;106547;1298;22150;-95
2022/12/24 11:52:15;;;;;;;19.20;17.30;;;;;;;6.28;100.00;97173.92;105988;1290;23205;-93
2022/12/24 11:55:09;;;;;;;21.40;18.90;;;;;;;6.25;100.00;97184.23;105452;1324;22115;-92
2022/12/24 11:58:02;;;;;;;17.00;14.70;;;;;;;6.22;100.00;97186.04;105370;1324;22257;-90
2022/12/24 12:00:30;;;;;;;17.00;15.20;;;;;;;6.15;100.00;97196.39;105150;1324;22282;-90
2022/12/24 12:03:01;;;;;;;24.90;22.30;;;;;;;6.11;100.00;97194.04;105209;1324;22219;-90
2022/12/24 12:05:32;;;;;;;22.20;20.00;;;;;;;6.11;100.00;97198.48;105348;1323;22276;-92
2022/12/24 12:08:14;;;;;;;25.90;22.60;;;;;;;6.11;100.00;97203.04;105169;1324;22173;-89
2022/12/24 12:10:45;;;;;;;26.30;22.70;;;;;;;6.11;100.00;97212.84;105075;1320;22201;-91
2022/12/24 12:13:18;;;;;;;25.60;22.30;;;;;;;6.10;100.00;97216.04;105526;1318;22253;-89